sensor_id;sensor_type;location;lat;lon;timestamp;pressure;altitude;pressure_sealevel;temperature
71640;BMP280;60912;48.968;10.124;2023-09-19T00:02:04;96230.84;;;19.03
71640;BMP280;60912;48.968;10.124;2023-09-19T00:04:34;96235.31;;;18.96
71640;BMP280;60912;48.968;10.124;2023-09-19T00:06:59;96247.16;;;18.95
71640;BMP280;60912;48.968;10.124;2023-09-19T00:09:28;96244.22;;;18.93
71640;BMP280;60912;48.968;10.124;2023-09-19T00:11:54;96239.84;;;18.90
71640;BMP280;60912;48.968;10.124;2023-09-19T00:14:19;96241.44;;;18.93
71640;BMP280;60912;48.968;10.124;2023-09-19T00:16:45;96245.16;;;18.97
71640;BMP280;60912;48.968;10.124;2023-09-19T00:19:11;96237.63;;;19.00
71640;BMP280;60912;48.968;10.124;2023-09-19T00:21:37;96250.00;;;18.97
71640;BMP280;60912;48.968;10.124;2023-09-19T00:24:06;96249.81;;;18.93
71640;BMP280;60912;48.968;10.124;2023-09-19T00:26:32;96243.19;;;19.00
71640;BMP280;60912;48.968;10.124;2023-09-19T00:28:57;96246.63;;;18.98
71640;BMP280;60912;48.968;10.124;2023-09-19T00:31:33;96238.50;;;18.91
71640;BMP280;60912;48.968;10.124;2023-09-19T00:33:59;96234.75;;;18.86
71640;BMP280;60912;48.968;10.124;2023-09-19T00:36:29;96239.38;;;18.82
71640;BMP280;60912;48.968;10.124;2023-09-19T00:38:54;96234.44;;;18.68
71640;BMP280;60912;48.968;10.124;2023-09-19T00:41:19;96240.25;;;18.73
71640;BMP280;60912;48.968;10.124;2023-09-19T00:43:46;96227.53;;;18.69
71640;BMP280;60912;48.968;10.124;2023-09-19T00:46:16;96226.66;;;18.79
71640;BMP280;60912;48.968;10.124;2023-09-19T00:48:42;96221.66;;;18.89
71640;BMP280;60912;48.968;10.124;2023-09-19T00:51:08;96232.56;;;18.85
71640;BMP280;60912;48.968;10.124;2023-09-19T00:53:34;96235.47;;;18.87
71640;BMP280;60912;48.968;10.124;2023-09-19T00:55:59;96234.16;;;18.88
71640;BMP280;60912;48.968;10.124;2023-09-19T00:58:25;96232.47;;;18.83
71640;BMP280;60912;48.968;10.124;2023-09-19T01:00:51;96232.97;;;18.79
71640;BMP280;60912;48.968;10.124;2023-09-19T01:03:17;96234.44;;;18.68
71640;BMP280;60912;48.968;10.124;2023-09-19T01:05:43;96225.09;;;18.76
71640;BMP280;60912;48.968;10.124;2023-09-19T01:08:09;96237.72;;;18.77
71640;BMP280;60912;48.968;10.124;2023-09-19T01:10:37;96237.81;;;18.79
71640;BMP280;60912;48.968;10.124;2023-09-19T01:13:17;96243.63;;;18.83
71640;BMP280;60912;48.968;10.124;2023-09-19T01:18:40;96236.41;;;18.54
71640;BMP280;60912;48.968;10.124;2023-09-19T01:21:26;96250.59;;;18.58
71640;BMP280;60912;48.968;10.124;2023-09-19T01:27:41;96248.31;;;18.55
71640;BMP280;60912;48.968;10.124;2023-09-19T01:29:51;96243.44;;;18.55
71640;BMP280;60912;48.968;10.124;2023-09-19T01:32:20;96243.06;;;18.49
71640;BMP280;60912;48.968;10.124;2023-09-19T01:34:52;96251.97;;;18.57
71640;BMP280;60912;48.968;10.124;2023-09-19T01:37:20;96254.09;;;18.59
71640;BMP280;60912;48.968;10.124;2023-09-19T01:39:53;96248.28;;;18.66
71640;BMP280;60912;48.968;10.124;2023-09-19T01:42:45;96245.72;;;18.70
71640;BMP280;60912;48.968;10.124;2023-09-19T01:45:13;96258.84;;;18.68
71640;BMP280;60912;48.968;10.124;2023-09-19T01:47:52;96264.91;;;18.64
71640;BMP280;60912;48.968;10.124;2023-09-19T01:53:03;96257.44;;;18.44
71640;BMP280;60912;48.968;10.124;2023-09-19T01:55:30;96265.69;;;18.18
71640;BMP280;60912;48.968;10.124;2023-09-19T01:58:35;96264.44;;;18.10
71640;BMP280;60912;48.968;10.124;2023-09-19T02:01:04;96270.72;;;17.99
71640;BMP280;60912;48.968;10.124;2023-09-19T02:03:34;96263.97;;;18.02
71640;BMP280;60912;48.968;10.124;2023-09-19T02:06:01;96273.41;;;18.08
71640;BMP280;60912;48.968;10.124;2023-09-19T02:08:26;96265.69;;;18.18
71640;BMP280;60912;48.968;10.124;2023-09-19T02:10:52;96274.66;;;18.29
71640;BMP280;60912;48.968;10.124;2023-09-19T02:13:22;96281.19;;;18.33
71640;BMP280;60912;48.968;10.124;2023-09-19T02:15:50;96277.31;;;18.27
71640;BMP280;60912;48.968;10.124;2023-09-19T02:18:16;96283.16;;;18.19
71640;BMP280;60912;48.968;10.124;2023-09-19T02:20:42;96287.63;;;18.24
71640;BMP280;60912;48.968;10.124;2023-09-19T02:23:08;96287.25;;;18.18
71640;BMP280;60912;48.968;10.124;2023-09-19T02:25:34;96288.59;;;18.05
71640;BMP280;60912;48.968;10.124;2023-09-19T02:28:00;96289.88;;;17.93
71640;BMP280;60912;48.968;10.124;2023-09-19T02:30:28;96294.88;;;17.94
71640;BMP280;60912;48.968;10.124;2023-09-19T02:32:54;96291.56;;;17.98
71640;BMP280;60912;48.968;10.124;2023-09-19T02:35:19;96293.06;;;18.10
71640;BMP280;60912;48.968;10.124;2023-09-19T02:37:45;96301.41;;;18.22
71640;BMP280;60912;48.968;10.124;2023-09-19T02:40:11;96300.50;;;18.29
71640;BMP280;60912;48.968;10.124;2023-09-19T02:42:53;96299.03;;;18.28
71640;BMP280;60912;48.968;10.124;2023-09-19T02:45:19;96309.34;;;18.26
71640;BMP280;60912;48.968;10.124;2023-09-19T02:47:48;96312.13;;;18.26
71640;BMP280;60912;48.968;10.124;2023-09-19T02:50:14;96312.59;;;18.22
71640;BMP280;60912;48.968;10.124;2023-09-19T02:52:44;96314.78;;;18.24
71640;BMP280;60912;48.968;10.124;2023-09-19T02:55:11;96314.44;;;18.29
71640;BMP280;60912;48.968;10.124;2023-09-19T02:57:37;96311.75;;;18.31
71640;BMP280;60912;48.968;10.124;2023-09-19T03:00:07;96310.78;;;18.38
71640;BMP280;60912;48.968;10.124;2023-09-19T03:02:35;96312.50;;;18.43
71640;BMP280;60912;48.968;10.124;2023-09-19T03:05:01;96320.75;;;18.41
71640;BMP280;60912;48.968;10.124;2023-09-19T03:07:28;96317.59;;;18.35
71640;BMP280;60912;48.968;10.124;2023-09-19T03:09:53;96312.25;;;18.39
71640;BMP280;60912;48.968;10.124;2023-09-19T03:12:20;96323.28;;;18.37
71640;BMP280;60912;48.968;10.124;2023-09-19T03:14:45;96326.22;;;18.39
71640;BMP280;60912;48.968;10.124;2023-09-19T03:17:11;96332.63;;;18.30
71640;BMP280;60912;48.968;10.124;2023-09-19T03:19:36;96333.97;;;18.29
71640;BMP280;60912;48.968;10.124;2023-09-19T03:22:05;96329.72;;;18.28
71640;BMP280;60912;48.968;10.124;2023-09-19T03:24:31;96340.88;;;18.28
71640;BMP280;60912;48.968;10.124;2023-09-19T03:26:59;96337.94;;;18.26
71640;BMP280;60912;48.968;10.124;2023-09-19T03:29:24;96335.75;;;18.13
71640;BMP280;60912;48.968;10.124;2023-09-19T03:31:50;96329.91;;;18.09
71640;BMP280;60912;48.968;10.124;2023-09-19T03:34:16;96329.69;;;18.16
71640;BMP280;60912;48.968;10.124;2023-09-19T03:36:42;96324.97;;;18.19
71640;BMP280;60912;48.968;10.124;2023-09-19T03:39:07;96333.81;;;18.15
71640;BMP280;60912;48.968;10.124;2023-09-19T03:41:32;96340.38;;;18.20
71640;BMP280;60912;48.968;10.124;2023-09-19T03:43:58;96334.66;;;18.18
71640;BMP280;60912;48.968;10.124;2023-09-19T03:46:23;96330.41;;;18.17
71640;BMP280;60912;48.968;10.124;2023-09-19T03:48:50;96345.94;;;18.20
71640;BMP280;60912;48.968;10.124;2023-09-19T03:51:15;96332.63;;;18.18
71640;BMP280;60912;48.968;10.124;2023-09-19T03:53:41;96336.72;;;18.17
71640;BMP280;60912;48.968;10.124;2023-09-19T03:56:06;96343.25;;;18.22
71640;BMP280;60912;48.968;10.124;2023-09-19T03:58:33;96343.25;;;18.22
71640;BMP280;60912;48.968;10.124;2023-09-19T04:01:03;96335.75;;;18.13
71640;BMP280;60912;48.968;10.124;2023-09-19T04:03:28;96338.97;;;17.98
71640;BMP280;60912;48.968;10.124;2023-09-19T04:06:00;96328.91;;;17.93
71640;BMP280;60912;48.968;10.124;2023-09-19T04:08:26;96320.81;;;17.97
71640;BMP280;60912;48.968;10.124;2023-09-19T04:10:52;96317.53;;;18.00
71640;BMP280;60912;48.968;10.124;2023-09-19T04:13:18;96319.00;;;18.01
71640;BMP280;60912;48.968;10.124;2023-09-19T04:15:43;96310.75;;;18.03
71640;BMP280;60912;48.968;10.124;2023-09-19T04:18:11;96330.78;;;18.11
71640;BMP280;60912;48.968;10.124;2023-09-19T04:20:39;96332.34;;;18.14
71640;BMP280;60912;48.968;10.124;2023-09-19T04:23:05;96332.00;;;18.20
71640;BMP280;60912;48.968;10.124;2023-09-19T04:25:31;96337.69;;;18.22
71640;BMP280;60912;48.968;10.124;2023-09-19T04:27:56;96344.13;;;18.25
71640;BMP280;60912;48.968;10.124;2023-09-19T04:30:22;96350.56;;;18.27
71640;BMP280;60912;48.968;10.124;2023-09-19T04:32:48;96345.94;;;18.20
71640;BMP280;60912;48.968;10.124;2023-09-19T04:35:16;96358.31;;;18.17
71640;BMP280;60912;48.968;10.124;2023-09-19T04:37:41;96359.88;;;18.20
71640;BMP280;60912;48.968;10.124;2023-09-19T04:40:08;96365.34;;;18.18
71640;BMP280;60912;48.968;10.124;2023-09-19T04:42:38;96368.03;;;18.16
71640;BMP280;60912;48.968;10.124;2023-09-19T04:45:04;96368.38;;;18.22
71640;BMP280;60912;48.968;10.124;2023-09-19T04:47:30;96368.97;;;18.21
71640;BMP280;60912;48.968;10.124;2023-09-19T04:49:55;96367.78;;;18.24
71640;BMP280;60912;48.968;10.124;2023-09-19T04:52:22;96360.53;;;18.30
71640;BMP280;60912;48.968;10.124;2023-09-19T04:54:47;96361.25;;;18.31
71640;BMP280;60912;48.968;10.124;2023-09-19T04:57:13;96368.25;;;18.20
71640;BMP280;60912;48.968;10.124;2023-09-19T04:59:39;96374.66;;;18.11
71640;BMP280;60912;48.968;10.124;2023-09-19T05:02:06;96377.47;;;18.11
71640;BMP280;60912;48.968;10.124;2023-09-19T05:04:33;96373.19;;;18.10
71640;BMP280;60912;48.968;10.124;2023-09-19T05:06:58;96383.16;;;18.13
71640;BMP280;60912;48.968;10.124;2023-09-19T05:09:25;96381.97;;;18.16
71640;BMP280;60912;48.968;10.124;2023-09-19T05:11:50;96384.34;;;18.10
71640;BMP280;60912;48.968;10.124;2023-09-19T05:14:17;96382.06;;;18.06
71640;BMP280;60912;48.968;10.124;2023-09-19T05:16:43;96391.03;;;18.16
71640;BMP280;60912;48.968;10.124;2023-09-19T05:19:08;96393.72;;;18.26
71640;BMP280;60912;48.968;10.124;2023-09-19T05:21:36;96395.72;;;18.35
71640;BMP280;60912;48.968;10.124;2023-09-19T05:24:07;96393.16;;;18.39
71640;BMP280;60912;48.968;10.124;2023-09-19T05:26:32;96391.97;;;18.42
71640;BMP280;60912;48.968;10.124;2023-09-19T05:28:58;96390.78;;;18.57
71640;BMP280;60912;48.968;10.124;2023-09-19T05:31:23;96399.13;;;18.57
71640;BMP280;60912;48.968;10.124;2023-09-19T05:33:51;96402.53;;;18.90
71640;BMP280;60912;48.968;10.124;2023-09-19T05:36:17;96400.94;;;18.99
71640;BMP280;60912;48.968;10.124;2023-09-19T05:38:42;96408.13;;;19.02
71640;BMP280;60912;48.968;10.124;2023-09-19T05:41:09;96417.34;;;18.93
71640;BMP280;60912;48.968;10.124;2023-09-19T05:43:39;96412.59;;;18.72
71640;BMP280;60912;48.968;10.124;2023-09-19T05:46:05;96413.47;;;18.63
71640;BMP280;60912;48.968;10.124;2023-09-19T05:48:30;96415.41;;;18.72
71640;BMP280;60912;48.968;10.124;2023-09-19T05:50:56;96422.09;;;18.67
71640;BMP280;60912;48.968;10.124;2023-09-19T05:53:21;96424.63;;;18.63
71640;BMP280;60912;48.968;10.124;2023-09-19T05:55:48;96420.22;;;19.30
71640;BMP280;60912;48.968;10.124;2023-09-19T05:58:14;96427.84;;;19.52
71640;BMP280;60912;48.968;10.124;2023-09-19T06:00:40;96435.63;;;19.42
71640;BMP280;60912;48.968;10.124;2023-09-19T06:03:08;96429.91;;;19.40
71640;BMP280;60912;48.968;10.124;2023-09-19T06:05:33;96440.84;;;19.36
71640;BMP280;60912;48.968;10.124;2023-09-19T06:07:59;96443.41;;;19.32
71640;BMP280;60912;48.968;10.124;2023-09-19T06:10:26;96433.50;;;19.17
71640;BMP280;60912;48.968;10.124;2023-09-19T06:12:53;96446.00;;;19.05
71640;BMP280;60912;48.968;10.124;2023-09-19T06:15:20;96445.50;;;18.97
71640;BMP280;60912;48.968;10.124;2023-09-19T06:17:49;96453.88;;;18.97
71640;BMP280;60912;48.968;10.124;2023-09-19T06:20:16;96447.69;;;18.87
71640;BMP280;60912;48.968;10.124;2023-09-19T06:22:42;96462.50;;;18.78
71640;BMP280;60912;48.968;10.124;2023-09-19T06:25:09;96461.75;;;18.65
71640;BMP280;60912;48.968;10.124;2023-09-19T06:27:39;96461.88;;;18.56
71640;BMP280;60912;48.968;10.124;2023-09-19T06:30:10;96467.88;;;18.29
71640;BMP280;60912;48.968;10.124;2023-09-19T06:32:37;96468.78;;;18.22
71640;BMP280;60912;48.968;10.124;2023-09-19T06:35:02;96466.25;;;18.26
71640;BMP280;60912;48.968;10.124;2023-09-19T06:37:28;96470.88;;;18.33
71640;BMP280;60912;48.968;10.124;2023-09-19T06:39:54;96476.47;;;18.33
71640;BMP280;60912;48.968;10.124;2023-09-19T06:42:19;96468.47;;;18.28
71640;BMP280;60912;48.968;10.124;2023-09-19T06:44:45;96471.06;;;18.14
71640;BMP280;60912;48.968;10.124;2023-09-19T06:47:11;96487.53;;;18.10
71640;BMP280;60912;48.968;10.124;2023-09-19T06:49:36;96480.00;;;18.01
71640;BMP280;60912;48.968;10.124;2023-09-19T06:52:02;96486.44;;;18.03
71640;BMP280;60912;48.968;10.124;2023-09-19T06:54:28;96494.16;;;17.93
71640;BMP280;60912;48.968;10.124;2023-09-19T06:56:59;96495.84;;;17.98
71640;BMP280;60912;48.968;10.124;2023-09-19T06:59:24;96494.41;;;17.97
71640;BMP280;60912;48.968;10.124;2023-09-19T07:01:50;96501.78;;;17.93
71640;BMP280;60912;48.968;10.124;2023-09-19T07:04:16;96499.75;;;17.84
71640;BMP280;60912;48.968;10.124;2023-09-19T07:06:42;96504.16;;;17.87
71640;BMP280;60912;48.968;10.124;2023-09-19T07:09:07;96508.19;;;17.95
71640;BMP280;60912;48.968;10.124;2023-09-19T07:11:33;96503.72;;;17.90
71640;BMP280;60912;48.968;10.124;2023-09-19T07:13:59;96507.75;;;17.99
71640;BMP280;60912;48.968;10.124;2023-09-19T07:16:24;96508.81;;;18.15
71640;BMP280;60912;48.968;10.124;2023-09-19T07:18:55;96511.19;;;18.09
71640;BMP280;60912;48.968;10.124;2023-09-19T07:21:22;96506.56;;;18.02
71640;BMP280;60912;48.968;10.124;2023-09-19T07:23:47;96518.81;;;18.08
71640;BMP280;60912;48.968;10.124;2023-09-19T07:26:13;96515.03;;;18.25
71640;BMP280;60912;48.968;10.124;2023-09-19T07:28:38;96517.91;;;18.48
71640;BMP280;60912;48.968;10.124;2023-09-19T07:31:04;96518.56;;;18.70
71640;BMP280;60912;48.968;10.124;2023-09-19T07:33:30;96522.47;;;18.77
71640;BMP280;60912;48.968;10.124;2023-09-19T07:35:56;96520.72;;;18.60
71640;BMP280;60912;48.968;10.124;2023-09-19T07:38:22;96519.97;;;18.59
71640;BMP280;60912;48.968;10.124;2023-09-19T07:40:48;96524.53;;;18.76
71640;BMP280;60912;48.968;10.124;2023-09-19T07:43:13;96528.59;;;19.08
71640;BMP280;60912;48.968;10.124;2023-09-19T07:45:39;96531.28;;;19.17
71640;BMP280;60912;48.968;10.124;2023-09-19T07:48:05;96534.06;;;19.29
71640;BMP280;60912;48.968;10.124;2023-09-19T07:50:33;96541.94;;;19.21
71640;BMP280;60912;48.968;10.124;2023-09-19T07:53:01;96545.59;;;19.35
71640;BMP280;60912;48.968;10.124;2023-09-19T07:55:30;96546.44;;;19.49
71640;BMP280;60912;48.968;10.124;2023-09-19T07:57:55;96552.63;;;19.36
71640;BMP280;60912;48.968;10.124;2023-09-19T08:00:21;96548.25;;;19.68
71640;BMP280;60912;48.968;10.124;2023-09-19T08:02:46;96548.16;;;20.03
71640;BMP280;60912;48.968;10.124;2023-09-19T08:05:13;96554.09;;;20.46
71640;BMP280;60912;48.968;10.124;2023-09-19T08:07:44;96553.19;;;20.94
71640;BMP280;60912;48.968;10.124;2023-09-19T08:10:11;96554.50;;;21.18
71640;BMP280;60912;48.968;10.124;2023-09-19T08:12:40;96554.72;;;21.49
71640;BMP280;60912;48.968;10.124;2023-09-19T08:15:19;96562.72;;;21.68
71640;BMP280;60912;48.968;10.124;2023-09-19T08:17:45;96563.53;;;21.84
71640;BMP280;60912;48.968;10.124;2023-09-19T08:20:11;96573.19;;;21.27
71640;BMP280;60912;48.968;10.124;2023-09-19T08:22:51;96579.72;;;21.18
71640;BMP280;60912;48.968;10.124;2023-09-19T08:25:21;96585.31;;;21.18
71640;BMP280;60912;48.968;10.124;2023-09-19T08:27:48;96588.50;;;20.73
71640;BMP280;60912;48.968;10.124;2023-09-19T08:30:18;96585.94;;;20.52
71640;BMP280;60912;48.968;10.124;2023-09-19T08:32:45;96585.34;;;20.54
71640;BMP280;60912;48.968;10.124;2023-09-19T08:35:13;96582.78;;;20.58
71640;BMP280;60912;48.968;10.124;2023-09-19T08:37:39;96580.22;;;20.75
71640;BMP280;60912;48.968;10.124;2023-09-19T08:40:04;96574.44;;;20.71
71640;BMP280;60912;48.968;10.124;2023-09-19T08:42:56;96583.31;;;20.68
71640;BMP280;60912;48.968;10.124;2023-09-19T08:45:25;96583.50;;;20.58
71640;BMP280;60912;48.968;10.124;2023-09-19T08:50:51;96586.59;;;20.39
71640;BMP280;60912;48.968;10.124;2023-09-19T08:53:26;96584.25;;;20.47
71640;BMP280;60912;48.968;10.124;2023-09-19T08:55:52;96587.84;;;20.61
71640;BMP280;60912;48.968;10.124;2023-09-19T08:58:21;96596.47;;;20.40
71640;BMP280;60912;48.968;10.124;2023-09-19T09:00:53;96592.63;;;20.47
71640;BMP280;60912;48.968;10.124;2023-09-19T09:03:20;96593.66;;;20.65
71640;BMP280;60912;48.968;10.124;2023-09-19T09:05:47;96595.13;;;20.92
71640;BMP280;60912;48.968;10.124;2023-09-19T09:08:13;96595.22;;;21.32
71640;BMP280;60912;48.968;10.124;2023-09-19T09:10:39;96596.16;;;21.64
71640;BMP280;60912;48.968;10.124;2023-09-19T09:13:06;96591.75;;;21.61
71640;BMP280;60912;48.968;10.124;2023-09-19T09:15:35;96605.06;;;21.33
71640;BMP280;60912;48.968;10.124;2023-09-19T09:18:02;96601.25;;;21.02
71640;BMP280;60912;48.968;10.124;2023-09-19T09:20:28;96606.56;;;20.70
71640;BMP280;60912;48.968;10.124;2023-09-19T09:22:55;96609.63;;;20.26
71640;BMP280;60912;48.968;10.124;2023-09-19T09:25:46;96609.56;;;20.49
71640;BMP280;60912;48.968;10.124;2023-09-19T09:28:19;96614.72;;;20.41
71640;BMP280;60912;48.968;10.124;2023-09-19T09:30:45;96615.50;;;20.18
71640;BMP280;60912;48.968;10.124;2023-09-19T09:33:12;96620.50;;;20.20
71640;BMP280;60912;48.968;10.124;2023-09-19T09:35:59;96612.72;;;20.18
71640;BMP280;60912;48.968;10.124;2023-09-19T09:38:45;96619.09;;;20.44
71640;BMP280;60912;48.968;10.124;2023-09-19T09:41:11;96623.38;;;20.70
71640;BMP280;60912;48.968;10.124;2023-09-19T09:43:41;96632.44;;;20.57
71640;BMP280;60912;48.968;10.124;2023-09-19T09:46:13;96628.50;;;20.62
71640;BMP280;60912;48.968;10.124;2023-09-19T09:48:55;96614.97;;;20.70
71640;BMP280;60912;48.968;10.124;2023-09-19T09:51:42;96617.09;;;21.09
71640;BMP280;60912;48.968;10.124;2023-09-19T09:54:16;96615.59;;;21.47
71640;BMP280;60912;48.968;10.124;2023-09-19T09:56:59;96607.13;;;22.15
71640;BMP280;60912;48.968;10.124;2023-09-19T10:02:14;96604.88;;;22.85
71640;BMP280;60912;48.968;10.124;2023-09-19T10:04:45;96605.25;;;22.93
71640;BMP280;60912;48.968;10.124;2023-09-19T10:07:27;96596.81;;;23.40
71640;BMP280;60912;48.968;10.124;2023-09-19T10:09:58;96601.50;;;23.51
71640;BMP280;60912;48.968;10.124;2023-09-19T10:12:45;96595.09;;;23.33
71640;BMP280;60912;48.968;10.124;2023-09-19T10:15:12;96599.72;;;23.42
71640;BMP280;60912;48.968;10.124;2023-09-19T10:17:43;96591.72;;;23.37
71640;BMP280;60912;48.968;10.124;2023-09-19T10:20:18;96604.59;;;23.26
71640;BMP280;60912;48.968;10.124;2023-09-19T10:22:59;96594.94;;;23.14
71640;BMP280;60912;48.968;10.124;2023-09-19T10:25:26;96599.91;;;23.15
71640;BMP280;60912;48.968;10.124;2023-09-19T10:27:54;96597.91;;;23.33
71640;BMP280;60912;48.968;10.124;2023-09-19T10:30:22;96602.25;;;22.89
71640;BMP280;60912;48.968;10.124;2023-09-19T10:32:57;96590.25;;;22.73
71640;BMP280;60912;48.968;10.124;2023-09-19T10:35:25;96606.59;;;22.92
71640;BMP280;60912;48.968;10.124;2023-09-19T10:37:51;96599.19;;;22.83
71640;BMP280;60912;48.968;10.124;2023-09-19T10:40:20;96597.38;;;23.05
71640;BMP280;60912;48.968;10.124;2023-09-19T10:42:48;96591.31;;;23.11
71640;BMP280;60912;48.968;10.124;2023-09-19T10:45:16;96591.84;;;22.47
71640;BMP280;60912;48.968;10.124;2023-09-19T10:47:43;96603.31;;;22.24
71640;BMP280;60912;48.968;10.124;2023-09-19T10:50:09;96600.72;;;21.85
71640;BMP280;60912;48.968;10.124;2023-09-19T10:52:40;96600.28;;;22.04
71640;BMP280;60912;48.968;10.124;2023-09-19T10:55:07;96601.97;;;22.38
71640;BMP280;60912;48.968;10.124;2023-09-19T10:57:35;96598.56;;;22.56
71640;BMP280;60912;48.968;10.124;2023-09-19T11:00:08;96599.88;;;22.99
71640;BMP280;60912;48.968;10.124;2023-09-19T11:05:41;96596.19;;;22.50
71640;BMP280;60912;48.968;10.124;2023-09-19T11:08:07;96595.94;;;22.60
71640;BMP280;60912;48.968;10.124;2023-09-19T11:10:49;96590.84;;;22.85
71640;BMP280;60912;48.968;10.124;2023-09-19T11:18:51;96581.19;;;22.59
71640;BMP280;60912;48.968;10.124;2023-09-19T11:26:47;96584.88;;;22.48
71640;BMP280;60912;48.968;10.124;2023-09-19T11:29:30;96581.75;;;22.71
71640;BMP280;60912;48.968;10.124;2023-09-19T11:31:57;96574.66;;;22.70
71640;BMP280;60912;48.968;10.124;2023-09-19T11:40:16;96568.41;;;22.27
71640;BMP280;60912;48.968;10.124;2023-09-19T11:45:07;96566.16;;;22.68
71640;BMP280;60912;48.968;10.124;2023-09-19T11:47:33;96568.50;;;22.74
71640;BMP280;60912;48.968;10.124;2023-09-19T11:50:01;96565.28;;;22.95
71640;BMP280;60912;48.968;10.124;2023-09-19T11:52:28;96562.53;;;23.13
71640;BMP280;60912;48.968;10.124;2023-09-19T11:55:00;96556.75;;;23.09
71640;BMP280;60912;48.968;10.124;2023-09-19T11:57:28;96550.75;;;23.32
71640;BMP280;60912;48.968;10.124;2023-09-19T11:59:55;96555.84;;;23.20
71640;BMP280;60912;48.968;10.124;2023-09-19T12:02:39;96548.66;;;23.01
71640;BMP280;60912;48.968;10.124;2023-09-19T12:05:07;96550.69;;;22.98
71640;BMP280;60912;48.968;10.124;2023-09-19T12:07:42;96542.94;;;23.15
71640;BMP280;60912;48.968;10.124;2023-09-19T12:10:09;96545.97;;;23.52
71640;BMP280;60912;48.968;10.124;2023-09-19T12:12:37;96541.47;;;23.96
71640;BMP280;60912;48.968;10.124;2023-09-19T12:15:02;96541.44;;;23.60
71640;BMP280;60912;48.968;10.124;2023-09-19T12:17:39;96545.44;;;23.55
71640;BMP280;60912;48.968;10.124;2023-09-19T12:20:08;96542.41;;;23.67
71640;BMP280;60912;48.968;10.124;2023-09-19T12:22:42;96532.50;;;23.66
71640;BMP280;60912;48.968;10.124;2023-09-19T12:25:09;96527.72;;;23.69
71640;BMP280;60912;48.968;10.124;2023-09-19T12:27:47;96535.34;;;23.84
71640;BMP280;60912;48.968;10.124;2023-09-19T12:30:15;96529.19;;;23.54
71640;BMP280;60912;48.968;10.124;2023-09-19T12:32:43;96531.47;;;23.75
71640;BMP280;60912;48.968;10.124;2023-09-19T12:35:09;96528.00;;;23.59
71640;BMP280;60912;48.968;10.124;2023-09-19T12:37:45;96523.28;;;23.81
71640;BMP280;60912;48.968;10.124;2023-09-19T12:40:19;96523.13;;;23.95
71640;BMP280;60912;48.968;10.124;2023-09-19T12:42:48;96517.28;;;24.24
71640;BMP280;60912;48.968;10.124;2023-09-19T12:45:15;96518.59;;;23.88
71640;BMP280;60912;48.968;10.124;2023-09-19T12:53:40;96513.88;;;23.92
71640;BMP280;60912;48.968;10.124;2023-09-19T12:56:11;96507.34;;;24.41
71640;BMP280;60912;48.968;10.124;2023-09-19T12:58:57;96508.84;;;24.44
71640;BMP280;60912;48.968;10.124;2023-09-19T13:01:28;96513.06;;;24.25
71640;BMP280;60912;48.968;10.124;2023-09-19T13:04:17;96504.56;;;24.23
71640;BMP280;60912;48.968;10.124;2023-09-19T13:06:52;96508.59;;;24.36
71640;BMP280;60912;48.968;10.124;2023-09-19T13:09:22;96504.66;;;24.62
71640;BMP280;60912;48.968;10.124;2023-09-19T13:11:49;96501.69;;;24.78
71640;BMP280;60912;48.968;10.124;2023-09-19T13:17:03;96502.97;;;24.55
71640;BMP280;60912;48.968;10.124;2023-09-19T13:19:44;96505.22;;;24.59
71640;BMP280;60912;48.968;10.124;2023-09-19T13:22:38;96496.72;;;24.39
71640;BMP280;60912;48.968;10.124;2023-09-19T13:25:22;96493.84;;;24.37
71640;BMP280;60912;48.968;10.124;2023-09-19T13:27:53;96503.75;;;24.58
71640;BMP280;60912;48.968;10.124;2023-09-19T13:30:24;96501.97;;;24.47
71640;BMP280;60912;48.968;10.124;2023-09-19T13:33:05;96490.47;;;24.23
71640;BMP280;60912;48.968;10.124;2023-09-19T13:35:32;96493.94;;;24.21
71640;BMP280;60912;48.968;10.124;2023-09-19T13:37:57;96501.44;;;24.15
71640;BMP280;60912;48.968;10.124;2023-09-19T13:40:23;96507.06;;;24.15
71640;BMP280;60912;48.968;10.124;2023-09-19T13:42:49;96503.41;;;24.12
71640;BMP280;60912;48.968;10.124;2023-09-19T13:45:19;96503.50;;;24.32
71640;BMP280;60912;48.968;10.124;2023-09-19T13:47:47;96502.00;;;24.11
71640;BMP280;60912;48.968;10.124;2023-09-19T13:50:12;96498.13;;;23.85
71640;BMP280;60912;48.968;10.124;2023-09-19T13:52:38;96491.16;;;23.86
71640;BMP280;60912;48.968;10.124;2023-09-19T13:55:04;96494.00;;;23.88
71640;BMP280;60912;48.968;10.124;2023-09-19T13:57:30;96485.13;;;23.94
71640;BMP280;60912;48.968;10.124;2023-09-19T13:59:56;96493.00;;;23.97
71640;BMP280;60912;48.968;10.124;2023-09-19T14:02:24;96474.13;;;24.19
71640;BMP280;60912;48.968;10.124;2023-09-19T14:04:51;96476.56;;;24.09
71640;BMP280;60912;48.968;10.124;2023-09-19T14:07:16;96480.84;;;24.10
71640;BMP280;60912;48.968;10.124;2023-09-19T14:09:44;96488.03;;;24.33
71640;BMP280;60912;48.968;10.124;2023-09-19T14:12:09;96483.28;;;24.38
71640;BMP280;60912;48.968;10.124;2023-09-19T14:14:35;96488.88;;;24.36
71640;BMP280;60912;48.968;10.124;2023-09-19T14:17:02;96489.78;;;24.23
71640;BMP280;60912;48.968;10.124;2023-09-19T14:19:28;96488.31;;;24.21
71640;BMP280;60912;48.968;10.124;2023-09-19T14:21:53;96490.28;;;24.37
71640;BMP280;60912;48.968;10.124;2023-09-19T14:24:22;96499.25;;;24.13
71640;BMP280;60912;48.968;10.124;2023-09-19T14:26:47;96486.47;;;23.93
71640;BMP280;60912;48.968;10.124;2023-09-19T14:29:14;96486.31;;;23.71
71640;BMP280;60912;48.968;10.124;2023-09-19T14:31:40;96490.66;;;23.74
71640;BMP280;60912;48.968;10.124;2023-09-19T14:34:06;96483.25;;;23.65
71640;BMP280;60912;48.968;10.124;2023-09-19T14:36:32;96472.19;;;23.87
71640;BMP280;60912;48.968;10.124;2023-09-19T14:38:58;96475.59;;;24.03
71640;BMP280;60912;48.968;10.124;2023-09-19T14:41:24;96473.75;;;24.09
71640;BMP280;60912;48.968;10.124;2023-09-19T14:43:54;96477.59;;;24.00
71640;BMP280;60912;48.968;10.124;2023-09-19T14:46:20;96475.34;;;24.14
71640;BMP280;60912;48.968;10.124;2023-09-19T14:48:46;96479.88;;;23.86
71640;BMP280;60912;48.968;10.124;2023-09-19T14:51:14;96480.44;;;23.65